Time;durP1;ratioP1;P1;durP2;ratioP2;P2;SDS_P1;SDS_P2;PMS_P1;PMS_P2;Temp;Humidity;BMP_temperature;BMP_pressure;BME280_temperature;BME280_humidity;BME280_pressure;Samples;Min_cycle;Max_cycle;Signal;HPM_P1;HPM_P2
2020/12/25 00:01:31;;;;;;;10.93;10.33;;;3.40;99.90;;;;;;5009925;28;20497;-78
2020/12/25 00:03:59;;;;;;;11.00;10.40;;;3.40;99.90;;;;;;5001087;28;20574;-78
2020/12/25 00:06:34;;;;;;;11.40;10.70;;;3.40;99.90;;;;;;5005461;28;20793;-78
2020/12/25 00:09:00;;;;;;;10.67;10.17;;;3.40;99.90;;;;;;5013085;28;20459;-78
2020/12/25 00:11:30;;;;;;;10.53;10.03;;;3.40;99.90;;;;;;5008352;28;20475;-79
2020/12/25 00:13:56;;;;;;;10.80;10.20;;;3.30;99.90;;;;;;5012379;28;20432;-77
2020/12/25 00:16:25;;;;;;;11.00;10.40;;;3.40;99.90;;;;;;5007712;28;20832;-78
2020/12/25 00:18:51;;;;;;;10.90;10.30;;;3.40;99.90;;;;;;5011471;28;20574;-78
2020/12/25 00:21:18;;;;;;;10.57;10.07;;;3.30;99.90;;;;;;5003721;28;20467;-78
2020/12/25 00:23:45;;;;;;;10.70;10.10;;;3.30;99.90;;;;;;5003857;28;20482;-78
2020/12/25 00:26:11;;;;;;;10.77;10.20;;;3.30;99.90;;;;;;5004053;28;20449;-78
2020/12/25 00:28:39;;;;;;;10.93;10.33;;;3.20;99.90;;;;;;5007144;28;20511;-78
2020/12/25 00:31:06;;;;;;;10.70;10.20;;;3.20;99.90;;;;;;5010125;28;20462;-78
2020/12/25 00:33:32;;;;;;;10.70;10.10;;;3.20;99.90;;;;;;4997430;28;20483;-78
2020/12/25 00:35:58;;;;;;;10.57;10.07;;;3.30;99.90;;;;;;5005438;28;20467;-78
2020/12/25 00:38:24;;;;;;;10.80;10.20;;;3.30;99.90;;;;;;5004957;28;20991;-78
2020/12/25 00:40:51;;;;;;;11.30;10.70;;;3.30;99.90;;;;;;5007247;28;21038;-78
2020/12/25 00:43:27;;;;;;;11.20;10.60;;;3.30;99.90;;;;;;5004092;28;20591;-78
2020/12/25 00:45:53;;;;;;;11.27;10.67;;;3.30;99.90;;;;;;5006079;28;20558;-78
2020/12/25 00:48:19;;;;;;;10.93;10.33;;;3.30;99.90;;;;;;5007443;28;20471;-78
2020/12/25 00:50:45;;;;;;;11.27;10.67;;;3.30;99.90;;;;;;5010673;28;20473;-78
2020/12/25 00:53:12;;;;;;;10.90;10.30;;;3.30;99.90;;;;;;5007269;28;20461;-78
2020/12/25 00:55:38;;;;;;;10.93;10.33;;;3.30;99.90;;;;;;5007475;28;20535;-78
2020/12/25 00:58:05;;;;;;;11.07;10.47;;;3.30;99.90;;;;;;5007476;28;20464;-78
2020/12/25 01:00:32;;;;;;;10.87;10.27;;;3.30;99.90;;;;;;5011505;28;20597;-78
2020/12/25 01:02:58;;;;;;;11.00;10.40;;;3.30;99.90;;;;;;5003663;28;20492;-78
2020/12/25 01:05:24;;;;;;;11.20;10.60;;;3.30;99.90;;;;;;5010701;28;20483;-78
2020/12/25 01:07:50;;;;;;;11.30;10.57;;;3.30;99.90;;;;;;5012065;28;20562;-78
2020/12/25 01:10:17;;;;;;;11.10;10.50;;;3.30;99.90;;;;;;5008230;28;20529;-79
2020/12/25 01:12:43;;;;;;;11.30;10.70;;;3.30;99.90;;;;;;5006941;28;20478;-78
2020/12/25 01:15:10;;;;;;;11.30;10.70;;;3.30;99.90;;;;;;5007288;28;20472;-78
2020/12/25 01:17:37;;;;;;;11.17;10.57;;;3.30;99.90;;;;;;5011564;28;20498;-78
2020/12/25 01:20:03;;;;;;;11.00;10.40;;;3.30;99.90;;;;;;5012685;28;20501;-79
2020/12/25 01:22:29;;;;;;;10.80;10.20;;;3.40;99.90;;;;;;5003525;28;20476;-78
2020/12/25 01:24:55;;;;;;;11.30;10.70;;;3.40;99.90;;;;;;5010477;28;20475;-78
2020/12/25 01:27:22;;;;;;;11.40;10.80;;;3.40;99.90;;;;;;5007901;28;20578;-79
2020/12/25 01:29:48;;;;;;;11.30;10.70;;;3.30;99.90;;;;;;5010693;28;20578;-78
2020/12/25 01:32:15;;;;;;;11.20;10.60;;;3.40;99.90;;;;;;5006898;28;20482;-78
2020/12/25 01:34:41;;;;;;;11.37;10.77;;;3.30;99.90;;;;;;5006683;28;20494;-78
2020/12/25 01:37:08;;;;;;;11.57;10.97;;;3.30;99.90;;;;;;5006682;28;20532;-78
2020/12/25 01:39:34;;;;;;;10.97;10.37;;;3.30;99.90;;;;;;5011750;28;20443;-78
2020/12/25 01:42:01;;;;;;;11.37;10.77;;;3.40;99.90;;;;;;5012164;28;21001;-78
2020/12/25 01:44:27;;;;;;;11.40;10.80;;;3.40;99.90;;;;;;5006446;28;21055;-78
2020/12/25 01:46:53;;;;;;;11.40;10.80;;;3.40;99.90;;;;;;5006614;28;20533;-78
2020/12/25 01:49:21;;;;;;;11.47;10.87;;;3.50;99.90;;;;;;5009411;28;20497;-78
2020/12/25 01:51:47;;;;;;;11.33;10.73;;;3.50;99.90;;;;;;5006501;28;20490;-79
2020/12/25 01:54:13;;;;;;;11.50;10.90;;;3.50;99.90;;;;;;5007771;28;20425;-78
2020/12/25 01:56:42;;;;;;;11.67;11.03;;;3.50;99.90;;;;;;5010793;28;20444;-78
2020/12/25 01:59:09;;;;;;;11.30;10.70;;;3.50;99.90;;;;;;5005627;28;20509;-78
2020/12/25 02:01:35;;;;;;;11.30;10.70;;;3.60;99.90;;;;;;5007301;28;20539;-78
2020/12/25 02:04:02;;;;;;;11.30;10.70;;;3.50;99.90;;;;;;5006145;28;20844;-78
2020/12/25 02:06:37;;;;;;;11.20;10.60;;;3.50;99.90;;;;;;5006599;28;20517;-78
2020/12/25 02:09:03;;;;;;;11.77;11.07;;;3.50;99.90;;;;;;5005812;28;20499;-79
2020/12/25 02:11:31;;;;;;;10.40;9.80;;;3.60;99.90;;;;;;5012187;28;20463;-78
2020/12/25 02:13:57;;;;;;;9.83;9.33;;;3.60;99.90;;;;;;5002510;28;20483;-78
2020/12/25 02:16:23;;;;;;;10.20;9.60;;;3.50;99.90;;;;;;5006832;28;20483;-78
2020/12/25 02:18:50;;;;;;;9.80;9.30;;;3.50;99.90;;;;;;5004435;28;20506;-78
2020/12/25 02:21:17;;;;;;;10.13;9.57;;;3.60;99.90;;;;;;5007211;28;20463;-78
2020/12/25 02:23:44;;;;;;;10.27;9.67;;;3.60;99.90;;;;;;5007397;28;20471;-78
2020/12/25 02:26:10;;;;;;;10.30;9.70;;;3.70;99.90;;;;;;5007267;28;20464;-78
2020/12/25 02:28:36;;;;;;;10.30;9.70;;;3.70;99.90;;;;;;5008621;28;20554;-78
2020/12/25 02:31:03;;;;;;;10.30;9.70;;;3.70;99.90;;;;;;5004288;28;20988;-79
2020/12/25 02:33:29;;;;;;;10.43;9.83;;;3.70;99.90;;;;;;5006223;28;20548;-78
2020/12/25 02:35:55;;;;;;;10.57;9.97;;;3.60;99.90;;;;;;5007081;28;20493;-78
2020/12/25 02:38:24;;;;;;;10.70;10.10;;;3.60;99.90;;;;;;5005301;28;21009;-78
2020/12/25 02:40:50;;;;;;;11.23;10.53;;;3.60;99.90;;;;;;5009383;28;20486;-78
2020/12/25 02:43:16;;;;;;;11.40;10.80;;;3.60;99.90;;;;;;5005319;28;20525;-79
2020/12/25 02:45:42;;;;;;;11.63;10.93;;;3.70;99.90;;;;;;5007964;28;21027;-79
2020/12/25 02:48:09;;;;;;;11.10;10.50;;;3.70;99.90;;;;;;5011450;28;20950;-78
2020/12/25 02:50:35;;;;;;;11.73;11.03;;;3.70;99.90;;;;;;5007521;28;20463;-78
2020/12/25 02:53:01;;;;;;;11.80;11.10;;;3.70;99.90;;;;;;5005363;28;20474;-78
2020/12/25 02:55:28;;;;;;;11.53;10.83;;;3.70;99.90;;;;;;5006659;28;20460;-78
2020/12/25 02:57:54;;;;;;;11.83;11.00;;;3.70;99.90;;;;;;5006259;28;20512;-78
2020/12/25 03:00:21;;;;;;;12.07;11.27;;;3.70;99.90;;;;;;5011390;28;20473;-78
2020/12/25 03:02:47;;;;;;;10.83;10.23;;;3.70;99.90;;;;;;5009253;28;20435;-78
2020/12/25 03:05:13;;;;;;;11.27;10.57;;;3.70;99.90;;;;;;5007219;28;20479;-78
2020/12/25 03:07:39;;;;;;;11.60;10.80;;;3.80;99.90;;;;;;5002917;28;20502;-78
2020/12/25 03:10:06;;;;;;;11.10;10.40;;;3.70;99.90;;;;;;5005921;28;20518;-78
2020/12/25 03:12:33;;;;;;;11.10;10.50;;;3.70;99.90;;;;;;5009189;28;20483;-78
2020/12/25 03:14:59;;;;;;;11.23;10.53;;;3.80;99.90;;;;;;5010824;28;20510;-78
2020/12/25 03:17:25;;;;;;;11.13;10.43;;;3.80;99.90;;;;;;5005895;28;20466;-78
2020/12/25 03:19:51;;;;;;;11.40;10.70;;;3.80;99.90;;;;;;5004819;28;20547;-78
2020/12/25 03:22:18;;;;;;;10.83;10.23;;;3.80;99.90;;;;;;5004902;28;20526;-78
2020/12/25 03:24:44;;;;;;;11.40;10.70;;;3.80;99.90;;;;;;5010009;28;20513;-78
2020/12/25 03:27:10;;;;;;;11.77;11.07;;;3.90;99.90;;;;;;5005795;28;20486;-78
2020/12/25 03:29:37;;;;;;;10.90;10.30;;;3.90;99.90;;;;;;5009753;28;20480;-79
2020/12/25 03:32:03;;;;;;;11.53;10.77;;;3.90;99.90;;;;;;5010155;28;20493;-79
2020/12/25 03:34:30;;;;;;;11.50;10.80;;;3.90;99.90;;;;;;5005836;28;20469;-77
2020/12/25 03:36:57;;;;;;;11.50;10.80;;;3.80;99.90;;;;;;5005485;28;20579;-76
2020/12/25 03:39:23;;;;;;;11.40;10.70;;;3.80;99.90;;;;;;5002780;28;20506;-78
2020/12/25 03:41:51;;;;;;;11.67;10.80;;;3.80;99.90;;;;;;5012433;28;20479;-78
2020/12/25 03:44:17;;;;;;;11.90;11.20;;;3.70;99.90;;;;;;5015443;28;20475;-77
2020/12/25 03:46:44;;;;;;;11.30;10.60;;;3.80;99.90;;;;;;5010314;28;20538;-77
2020/12/25 03:49:11;;;;;;;11.10;10.40;;;3.80;99.90;;;;;;5010776;28;20888;-77
2020/12/25 03:51:38;;;;;;;11.20;10.50;;;3.80;99.90;;;;;;5005691;28;20523;-78
2020/12/25 03:54:04;;;;;;;11.30;10.60;;;3.80;99.90;;;;;;5011584;28;20530;-77
2020/12/25 03:56:31;;;;;;;11.13;10.43;;;3.80;99.90;;;;;;5007462;28;20531;-77
2020/12/25 03:58:57;;;;;;;10.77;10.17;;;3.80;99.90;;;;;;5009470;28;20995;-78
2020/12/25 04:01:24;;;;;;;11.10;10.40;;;3.80;99.90;;;;;;5009118;28;20940;-78
2020/12/25 04:03:51;;;;;;;11.27;10.57;;;3.80;99.90;;;;;;5009089;28;21035;-78
2020/12/25 04:06:17;;;;;;;11.30;10.60;;;3.80;99.90;;;;;;5010753;28;20519;-77
2020/12/25 04:08:44;;;;;;;11.43;10.73;;;3.80;99.90;;;;;;5011456;28;20547;-76
2020/12/25 04:11:11;;;;;;;11.27;10.57;;;3.80;99.90;;;;;;5006228;28;20441;-77
2020/12/25 04:13:37;;;;;;;11.20;10.60;;;3.80;99.90;;;;;;5008363;28;20533;-77
2020/12/25 04:16:06;;;;;;;10.70;10.10;;;3.80;99.90;;;;;;5006482;28;20918;-76
2020/12/25 04:18:32;;;;;;;10.30;9.70;;;3.80;99.90;;;;;;5003185;28;20486;-77
2020/12/25 04:21:00;;;;;;;10.10;9.40;;;3.80;99.90;;;;;;5008536;28;20533;-78
2020/12/25 04:23:28;;;;;;;10.20;9.60;;;3.80;99.90;;;;;;5014824;28;20478;-78
2020/12/25 04:25:54;;;;;;;10.13;9.53;;;3.80;99.90;;;;;;5011085;28;20542;-77
2020/12/25 04:28:21;;;;;;;10.53;9.73;;;3.80;99.90;;;;;;5013349;28;20468;-77
2020/12/25 04:30:47;;;;;;;11.30;10.43;;;3.90;99.90;;;;;;5015657;28;20970;-77
2020/12/25 04:33:13;;;;;;;10.67;9.97;;;3.80;99.90;;;;;;5010595;28;20972;-77
2020/12/25 04:35:39;;;;;;;10.70;10.00;;;3.80;99.90;;;;;;5014510;28;20486;-77
2020/12/25 04:38:07;;;;;;;10.40;9.80;;;3.80;99.90;;;;;;5010254;28;20476;-78
2020/12/25 04:40:34;;;;;;;10.50;9.90;;;3.80;99.90;;;;;;5013148;28;20486;-79
2020/12/25 04:43:03;;;;;;;11.40;10.70;;;3.80;99.90;;;;;;5015555;28;20495;-77
2020/12/25 04:45:29;;;;;;;12.03;11.23;;;3.80;99.90;;;;;;5012420;28;20745;-78
2020/12/25 04:47:56;;;;;;;11.67;10.97;;;3.80;99.90;;;;;;5016179;28;20473;-77
2020/12/25 04:50:22;;;;;;;11.70;11.00;;;3.80;99.90;;;;;;5016769;28;20522;-78
2020/12/25 04:52:49;;;;;;;11.70;11.00;;;3.80;99.90;;;;;;5012993;28;20474;-77
2020/12/25 04:55:16;;;;;;;11.43;10.73;;;3.80;99.90;;;;;;5015686;28;20466;-78
2020/12/25 04:57:42;;;;;;;11.07;10.37;;;3.70;99.90;;;;;;5016985;28;20589;-78
2020/12/25 05:00:17;;;;;;;11.20;10.50;;;3.70;99.90;;;;;;5009023;28;20445;-78
2020/12/25 05:02:43;;;;;;;10.43;9.83;;;3.60;99.90;;;;;;4998490;28;20436;-77
2020/12/25 05:05:10;;;;;;;10.50;9.90;;;3.60;99.90;;;;;;4999109;28;20520;-78
2020/12/25 05:07:37;;;;;;;10.33;9.73;;;3.60;99.90;;;;;;4998954;28;20491;-78
2020/12/25 05:10:06;;;;;;;10.67;9.97;;;3.40;99.90;;;;;;5013514;28;20456;-78
2020/12/25 05:12:34;;;;;;;10.97;10.37;;;3.40;99.90;;;;;;5006510;28;20466;-77
2020/12/25 05:15:04;;;;;;;10.40;9.80;;;3.30;99.90;;;;;;5012101;28;20443;-77
2020/12/25 05:17:31;;;;;;;10.80;10.20;;;3.30;99.90;;;;;;5008531;28;20554;-77
2020/12/25 05:19:58;;;;;;;10.30;9.70;;;3.30;99.90;;;;;;5012947;28;20451;-78
2020/12/25 05:22:25;;;;;;;10.40;9.80;;;3.30;99.90;;;;;;5014478;28;20478;-77
2020/12/25 05:24:52;;;;;;;10.10;9.60;;;3.30;99.90;;;;;;5013568;28;20497;-78
2020/12/25 05:27:19;;;;;;;10.33;9.83;;;3.30;99.90;;;;;;5014838;28;20819;-77
2020/12/25 05:29:49;;;;;;;10.80;10.20;;;3.20;99.90;;;;;;5014326;28;20482;-77
2020/12/25 05:32:15;;;;;;;10.10;9.60;;;3.20;99.90;;;;;;5011838;28;20487;-78
2020/12/25 05:34:43;;;;;;;10.60;10.00;;;3.20;99.90;;;;;;5007406;28;20486;-77
2020/12/25 05:37:10;;;;;;;10.60;10.00;;;3.10;99.90;;;;;;5016225;28;20443;-77
2020/12/25 05:39:38;;;;;;;10.97;10.37;;;3.10;99.90;;;;;;5013609;28;20523;-78
2020/12/25 05:42:05;;;;;;;10.70;10.10;;;3.10;99.90;;;;;;5017028;28;20483;-78
2020/12/25 05:44:39;;;;;;;10.70;10.10;;;3.10;99.90;;;;;;5012413;28;20499;-79
2020/12/25 05:47:07;;;;;;;16.93;16.03;;;3.10;99.90;;;;;;5012247;28;20491;-79
2020/12/25 05:49:34;;;;;;;10.67;10.17;;;3.10;99.90;;;;;;5013553;28;20816;-78
2020/12/25 05:52:00;;;;;;;11.20;10.60;;;3.10;99.90;;;;;;5001892;28;20498;-79
2020/12/25 05:54:28;;;;;;;11.47;10.87;;;3.10;99.90;;;;;;5012474;28;20933;-78
2020/12/25 05:56:56;;;;;;;11.00;10.40;;;3.10;99.90;;;;;;5015709;28;20482;-77
2020/12/25 05:59:25;;;;;;;11.20;10.60;;;3.10;99.90;;;;;;5013610;28;20565;-77
2020/12/25 06:01:57;;;;;;;11.20;10.60;;;3.10;99.90;;;;;;5016405;28;20447;-78
2020/12/25 06:04:25;;;;;;;11.07;10.47;;;3.10;99.90;;;;;;5016454;28;20478;-79
2020/12/25 06:06:51;;;;;;;11.10;10.50;;;3.10;99.90;;;;;;5015687;28;20527;-78
2020/12/25 06:09:19;;;;;;;11.40;10.80;;;3.20;99.90;;;;;;5000459;28;20473;-78
2020/12/25 06:11:48;;;;;;;10.70;10.10;;;3.20;99.90;;;;;;5015551;28;20497;-77
2020/12/25 06:14:15;;;;;;;10.77;10.17;;;3.20;99.90;;;;;;5015291;28;20490;-78
2020/12/25 06:16:50;;;;;;;10.83;10.23;;;3.20;99.90;;;;;;5014804;28;20546;-79
2020/12/25 06:19:25;;;;;;;10.87;10.27;;;3.30;99.90;;;;;;5013418;28;20538;-78
2020/12/25 06:21:55;;;;;;;10.57;9.97;;;3.30;99.90;;;;;;5016239;28;20470;-78
2020/12/25 06:24:27;;;;;;;10.80;10.20;;;3.20;99.90;;;;;;5008948;28;20452;-78
2020/12/25 06:26:54;;;;;;;10.70;10.10;;;3.20;99.90;;;;;;5015439;28;20450;-78
2020/12/25 06:29:21;;;;;;;11.10;10.50;;;3.20;99.90;;;;;;5011444;28;20883;-78
2020/12/25 06:31:48;;;;;;;11.87;11.27;;;3.20;99.90;;;;;;5011462;28;20534;-78
2020/12/25 06:34:15;;;;;;;11.07;10.40;;;3.20;99.90;;;;;;5013901;28;20432;-77
2020/12/25 06:36:47;;;;;;;11.50;10.77;;;3.20;99.90;;;;;;5015168;28;20501;-77
2020/12/25 06:39:15;;;;;;;11.43;10.83;;;3.20;99.90;;;;;;5014643;28;20575;-78
2020/12/25 06:41:41;;;;;;;11.57;10.97;;;3.20;99.90;;;;;;5013704;28;20451;-79
2020/12/25 06:44:09;;;;;;;11.20;10.60;;;3.20;99.90;;;;;;5037151;23;20518;-76
2020/12/25 06:46:36;;;;;;;11.17;10.57;;;3.20;99.90;;;;;;5024503;28;20501;-77
2020/12/25 06:49:05;;;;;;;11.77;11.07;;;3.10;99.90;;;;;;5023976;28;20952;-78
2020/12/25 06:51:31;;;;;;;12.20;11.50;;;3.10;99.90;;;;;;5023684;28;20485;-76
2020/12/25 06:54:02;;;;;;;11.50;10.87;;;3.10;99.90;;;;;;5023624;28;20483;-77
2020/12/25 06:56:29;;;;;;;11.70;11.10;;;3.00;99.90;;;;;;5024272;28;20526;-76
2020/12/25 06:58:55;;;;;;;11.10;10.50;;;3.00;99.90;;;;;;5019176;28;20498;-77
2020/12/25 07:01:38;;;;;;;11.20;10.57;;;3.00;99.90;;;;;;5017422;28;20494;-76
2020/12/25 07:04:04;;;;;;;11.40;10.80;;;3.00;99.90;;;;;;5019248;28;20518;-77
2020/12/25 07:06:31;;;;;;;12.10;11.40;;;3.00;99.90;;;;;;5021955;28;20545;-76
2020/12/25 07:09:10;;;;;;;11.60;10.90;;;3.00;99.90;;;;;;5019025;28;20537;-77
2020/12/25 07:11:36;;;;;;;12.10;11.40;;;2.90;99.90;;;;;;5019093;28;20446;-77
2020/12/25 07:14:03;;;;;;;12.07;11.27;;;2.90;99.90;;;;;;5020266;28;20499;-77
2020/12/25 07:16:29;;;;;;;12.00;11.30;;;2.90;99.90;;;;;;5028778;28;20516;-76
2020/12/25 07:18:56;;;;;;;11.50;10.80;;;2.90;99.90;;;;;;5026689;28;20528;-77
2020/12/25 07:21:22;;;;;;;12.23;11.53;;;2.80;99.90;;;;;;5019242;28;20780;-77
2020/12/25 07:23:48;;;;;;;11.07;10.47;;;2.80;99.90;;;;;;5024092;28;20498;-76
2020/12/25 07:26:17;;;;;;;12.57;11.67;;;2.80;99.90;;;;;;5022046;28;20567;-77
2020/12/25 07:28:45;;;;;;;13.20;12.30;;;2.80;99.90;;;;;;5023690;28;20427;-77
2020/12/25 07:31:11;;;;;;;13.83;12.77;;;2.80;99.90;;;;;;5021591;28;20471;-77
2020/12/25 07:33:37;;;;;;;14.57;13.27;;;2.70;99.90;;;;;;5018647;28;20483;-76
2020/12/25 07:36:09;;;;;;;13.87;12.97;;;2.70;99.90;;;;;;5018935;28;20487;-76
2020/12/25 07:38:35;;;;;;;13.30;12.50;;;2.70;99.90;;;;;;5020173;28;20444;-75
2020/12/25 07:41:02;;;;;;;12.50;11.80;;;2.80;99.90;;;;;;5017132;28;20483;-76
2020/12/25 07:43:29;;;;;;;13.27;12.47;;;2.70;99.90;;;;;;5020657;28;20468;-77
2020/12/25 07:45:55;;;;;;;13.80;13.00;;;2.80;99.90;;;;;;5020126;28;20526;-77
2020/12/25 07:48:23;;;;;;;13.33;12.53;;;2.70;99.90;;;;;;5022151;28;20528;-77
2020/12/25 07:50:49;;;;;;;12.70;12.00;;;2.70;99.90;;;;;;5013890;28;20531;-77
2020/12/25 07:53:17;;;;;;;12.30;11.60;;;2.80;99.90;;;;;;5028144;28;20461;-76
2020/12/25 07:55:47;;;;;;;12.30;11.60;;;2.80;99.90;;;;;;5019669;28;20463;-77
2020/12/25 07:58:13;;;;;;;13.53;12.83;;;2.80;99.90;;;;;;5017358;28;21080;-77
2020/12/25 08:00:41;;;;;;;12.40;11.70;;;2.70;99.90;;;;;;5018740;28;20824;-76
2020/12/25 08:03:09;;;;;;;12.30;11.60;;;2.70;99.90;;;;;;5016668;28;20490;-76
2020/12/25 08:05:35;;;;;;;12.50;11.80;;;2.80;99.90;;;;;;5020756;28;21003;-77
2020/12/25 08:08:03;;;;;;;12.33;11.63;;;2.80;99.90;;;;;;5024774;28;20484;-76
2020/12/25 08:10:29;;;;;;;12.67;11.97;;;2.80;99.90;;;;;;5018475;28;20447;-77
2020/12/25 08:12:59;;;;;;;12.43;11.53;;;2.80;99.90;;;;;;5048417;28;20486;-77
2020/12/25 08:15:26;;;;;;;11.93;11.23;;;2.80;99.90;;;;;;5016039;28;20529;-78
2020/12/25 08:17:55;;;;;;;12.10;11.40;;;2.80;99.90;;;;;;5019628;28;20476;-78
2020/12/25 08:20:22;;;;;;;12.90;12.10;;;2.70;99.90;;;;;;5044333;28;21060;-78
2020/12/25 08:22:48;;;;;;;11.80;11.10;;;2.70;99.90;;;;;;5024906;28;20445;-78
2020/12/25 08:25:15;;;;;;;12.03;11.23;;;2.80;99.90;;;;;;5016089;28;20484;-74
2020/12/25 08:27:42;;;;;;;12.07;11.37;;;2.80;99.90;;;;;;5019112;28;20829;-77
2020/12/25 08:30:08;;;;;;;12.33;11.53;;;2.80;99.90;;;;;;5028371;28;20872;-78
2020/12/25 08:32:34;;;;;;;13.33;12.53;;;2.80;99.90;;;;;;5015264;28;20467;-77
2020/12/25 08:35:10;;;;;;;12.50;11.73;;;2.80;99.90;;;;;;5044367;28;20519;-81
2020/12/25 08:37:36;;;;;;;12.97;12.17;;;2.80;99.90;;;;;;5018867;28;20474;-81
2020/12/25 08:40:13;;;;;;;13.17;12.33;;;2.80;99.90;;;;;;5023892;28;20445;-81
2020/12/25 08:42:40;;;;;;;14.20;13.30;;;2.80;99.90;;;;;;5025638;28;20509;-76
2020/12/25 08:45:06;;;;;;;13.93;13.13;;;2.70;99.90;;;;;;5024235;28;20519;-77
2020/12/25 08:47:32;;;;;;;14.93;14.00;;;2.70;99.90;;;;;;5021208;28;20463;-77
2020/12/25 08:49:58;;;;;;;14.43;13.43;;;2.70;99.90;;;;;;5023349;28;20471;-77
2020/12/25 08:52:26;;;;;;;14.37;13.37;;;2.70;99.90;;;;;;5026093;28;20529;-78
2020/12/25 08:54:56;;;;;;;14.17;13.27;;;2.80;99.90;;;;;;5022902;28;20842;-76
2020/12/25 08:57:23;;;;;;;14.30;13.40;;;2.80;99.90;;;;;;5018067;28;20482;-76
2020/12/25 09:00:10;;;;;;;14.40;13.40;;;2.80;99.90;;;;;;5018549;28;20561;-78
2020/12/25 09:02:36;;;;;;;15.43;14.33;;;2.80;99.90;;;;;;5014713;28;20439;-78
2020/12/25 09:05:02;;;;;;;14.47;13.47;;;2.80;99.90;;;;;;5018378;28;20539;-77
2020/12/25 09:07:30;;;;;;;13.50;12.60;;;2.80;99.90;;;;;;5020641;28;20486;-78
2020/12/25 09:09:56;;;;;;;13.10;12.30;;;2.80;99.90;;;;;;5047243;28;20454;-78
2020/12/25 09:12:22;;;;;;;18.23;17.13;;;2.90;99.90;;;;;;5027356;28;21007;-77
2020/12/25 09:14:48;;;;;;;19.37;18.17;;;2.90;99.90;;;;;;5024937;28;20455;-78
2020/12/25 09:17:15;;;;;;;12.77;11.97;;;2.90;99.90;;;;;;5023461;28;20442;-78
2020/12/25 09:19:43;;;;;;;12.00;11.23;;;2.90;99.90;;;;;;5026749;28;20468;-77
2020/12/25 09:22:09;;;;;;;12.43;11.63;;;2.90;99.90;;;;;;5027501;28;20427;-77
2020/12/25 09:24:36;;;;;;;12.40;11.60;;;3.00;99.90;;;;;;5021561;28;20458;-77
2020/12/25 09:27:02;;;;;;;12.23;11.43;;;3.00;99.90;;;;;;5025099;28;20459;-77
2020/12/25 09:29:29;;;;;;;12.60;11.80;;;3.00;99.90;;;;;;5035783;28;20465;-77
2020/12/25 09:31:55;;;;;;;12.33;11.63;;;3.00;99.90;;;;;;5023242;28;20514;-77
2020/12/25 09:34:21;;;;;;;12.30;11.50;;;3.00;99.90;;;;;;5027496;28;20812;-77
2020/12/25 09:36:47;;;;;;;13.17;12.27;;;3.00;99.90;;;;;;5033241;28;20592;-76
2020/12/25 09:39:14;;;;;;;12.90;12.10;;;3.00;99.90;;;;;;5023864;28;20440;-77
2020/12/25 09:41:41;;;;;;;12.63;11.87;;;3.00;99.90;;;;;;5023205;28;20544;-77
2020/12/25 09:44:07;;;;;;;12.07;11.27;;;3.10;99.90;;;;;;5022598;28;21042;-76
2020/12/25 09:46:33;;;;;;;12.50;11.70;;;3.10;99.90;;;;;;5021790;28;20945;-77
2020/12/25 09:48:59;;;;;;;12.67;11.77;;;3.10;99.90;;;;;;5025680;28;20886;-76
2020/12/25 09:51:26;;;;;;;12.40;11.60;;;3.20;99.90;;;;;;5026572;28;20857;-77
2020/12/25 09:53:52;;;;;;;11.93;11.13;;;3.20;99.90;;;;;;5028480;28;20490;-77
2020/12/25 09:56:18;;;;;;;12.00;11.30;;;3.20;99.90;;;;;;5027570;28;20997;-79
2020/12/25 09:58:45;;;;;;;12.67;11.87;;;3.20;99.90;;;;;;5033596;28;20432;-76
2020/12/25 10:01:12;;;;;;;11.97;11.17;;;3.30;99.90;;;;;;5026836;28;20493;-77
2020/12/25 10:03:38;;;;;;;12.33;11.53;;;3.30;99.90;;;;;;5029358;28;20543;-77
2020/12/25 10:06:04;;;;;;;12.30;11.50;;;3.30;99.90;;;;;;5037255;28;20470;-76
2020/12/25 10:08:30;;;;;;;12.13;11.33;;;3.40;99.90;;;;;;5033683;28;20761;-76
2020/12/25 10:10:57;;;;;;;5.57;4.70;;;3.40;99.90;;;;;;5036969;28;20473;-76
2020/12/25 10:13:23;;;;;;;4.70;4.20;;;3.30;99.90;;;;;;5032426;28;20479;-77
2020/12/25 10:15:52;;;;;;;5.10;4.60;;;3.30;99.90;;;;;;5033300;28;20458;-77
2020/12/25 10:18:19;;;;;;;5.97;5.37;;;3.30;99.90;;;;;;5033022;28;20440;-78
2020/12/25 10:20:48;;;;;;;13.97;12.97;;;3.30;99.90;;;;;;5032569;28;20434;-78
2020/12/25 10:23:14;;;;;;;15.57;14.47;;;3.20;99.90;;;;;;5033111;28;20453;-77
2020/12/25 10:25:45;;;;;;;14.93;13.87;;;3.30;99.90;;;;;;5029896;28;20573;-77
2020/12/25 10:28:12;;;;;;;14.67;13.67;;;3.30;99.90;;;;;;5032126;28;20467;-77
2020/12/25 10:30:38;;;;;;;14.33;13.33;;;3.30;99.90;;;;;;5033424;28;21105;-77
2020/12/25 10:33:05;;;;;;;14.13;13.13;;;3.40;99.90;;;;;;5033454;28;20430;-82
2020/12/25 10:35:32;;;;;;;15.43;14.20;;;3.40;99.90;;;;;;5028793;28;20498;-80
2020/12/25 10:37:58;;;;;;;15.90;14.63;;;3.50;99.90;;;;;;5026677;28;20428;-77
2020/12/25 10:40:24;;;;;;;15.87;14.60;;;3.60;99.90;;;;;;5027200;28;20438;-76
2020/12/25 10:42:51;;;;;;;15.17;14.00;;;3.70;99.90;;;;;;5022684;28;20577;-76
2020/12/25 10:45:17;;;;;;;18.13;16.43;;;3.80;99.90;;;;;;5023256;28;20520;-76
2020/12/25 10:47:43;;;;;;;23.47;17.67;;;3.90;99.90;;;;;;5024673;28;20466;-77
2020/12/25 10:50:10;;;;;;;17.77;16.13;;;3.90;99.90;;;;;;5022013;28;20927;-76
2020/12/25 10:52:37;;;;;;;17.23;15.63;;;4.00;99.90;;;;;;5022813;28;20582;-76
2020/12/25 10:55:03;;;;;;;16.73;15.17;;;4.00;99.90;;;;;;5019550;28;20553;-77
2020/12/25 10:57:29;;;;;;;17.63;16.13;;;4.00;99.90;;;;;;5027214;28;20537;-77
2020/12/25 10:59:55;;;;;;;17.03;15.60;;;4.00;99.90;;;;;;5020242;28;20446;-79
2020/12/25 11:02:22;;;;;;;16.30;14.93;;;4.00;99.90;;;;;;5019671;28;20477;-77
2020/12/25 11:04:48;;;;;;;16.40;15.03;;;4.00;99.90;;;;;;5027370;28;20470;-77
2020/12/25 11:07:15;;;;;;;17.17;15.77;;;4.00;99.90;;;;;;5017801;28;20526;-78
2020/12/25 11:09:41;;;;;;;15.40;14.20;;;4.00;99.90;;;;;;5024613;28;21105;-75
2020/12/25 11:12:07;;;;;;;15.20;14.07;;;4.00;99.90;;;;;;5027946;28;20454;-77
2020/12/25 11:14:34;;;;;;;14.67;13.47;;;4.00;99.90;;;;;;5021002;28;20459;-76
2020/12/25 11:17:00;;;;;;;14.97;13.73;;;4.10;99.90;;;;;;5023541;28;20484;-76
2020/12/25 11:19:27;;;;;;;15.53;14.20;;;4.10;99.90;;;;;;5020550;28;20474;-76
2020/12/25 11:21:53;;;;;;;14.97;13.77;;;4.00;99.90;;;;;;5023777;28;20463;-76
2020/12/25 11:24:20;;;;;;;14.67;13.57;;;4.00;99.90;;;;;;5021454;28;20487;-76
2020/12/25 11:26:46;;;;;;;14.57;13.33;;;3.90;99.90;;;;;;5026449;28;20555;-76
2020/12/25 11:29:12;;;;;;;14.57;13.47;;;3.90;99.90;;;;;;5024475;28;20530;-77
2020/12/25 11:31:39;;;;;;;14.30;13.30;;;3.90;99.90;;;;;;5024673;28;20462;-77
2020/12/25 11:34:06;;;;;;;13.93;12.93;;;4.00;99.90;;;;;;5022245;28;21000;-77
2020/12/25 11:36:34;;;;;;;14.47;13.30;;;3.90;99.90;;;;;;5024758;28;20451;-77
2020/12/25 11:39:01;;;;;;;13.67;12.70;;;4.00;99.90;;;;;;5026030;28;20450;-77
2020/12/25 11:41:28;;;;;;;14.20;13.10;;;4.00;99.90;;;;;;5014787;28;20451;-77
2020/12/25 11:43:55;;;;;;;14.57;13.47;;;4.10;99.90;;;;;;5028534;28;20516;-77
2020/12/25 11:46:23;;;;;;;14.10;12.93;;;4.10;99.90;;;;;;5021697;28;20502;-78
2020/12/25 11:48:51;;;;;;;14.93;13.73;;;4.20;99.90;;;;;;5019663;28;20530;-76
2020/12/25 11:51:18;;;;;;;14.70;13.40;;;4.30;99.90;;;;;;5019522;28;20527;-76
2020/12/25 11:53:45;;;;;;;14.53;13.43;;;4.30;99.90;;;;;;5018740;28;20836;-75
2020/12/25 11:56:11;;;;;;;14.27;13.17;;;4.50;99.90;;;;;;5026417;28;20457;-76
2020/12/25 11:58:39;;;;;;;14.87;13.67;;;4.40;99.90;;;;;;5018318;28;20451;-77
2020/12/25 12:01:05;;;;;;;14.53;13.27;;;4.30;99.90;;;;;;5018795;28;20510;-77
2020/12/25 12:03:32;;;;;;;15.50;14.30;;;4.30;99.90;;;;;;5019762;28;20470;-75
2020/12/25 12:05:59;;;;;;;14.73;13.53;;;4.30;99.90;;;;;;5016418;28;20550;-75
2020/12/25 12:08:25;;;;;;;14.63;13.57;;;4.30;99.90;;;;;;5026616;28;20462;-76
2020/12/25 12:10:51;;;;;;;14.50;13.43;;;4.10;99.90;;;;;;5018324;28;20228;-76
2020/12/25 12:13:17;;;;;;;16.23;14.93;;;4.10;99.90;;;;;;5017269;28;20431;-75
2020/12/25 12:15:45;;;;;;;16.23;14.83;;;4.00;99.90;;;;;;5019553;28;20459;-75
2020/12/25 12:18:11;;;;;;;15.37;14.17;;;3.90;99.90;;;;;;5021198;28;20466;-78
2020/12/25 12:20:37;;;;;;;15.63;14.27;;;3.80;99.90;;;;;;5019608;28;20442;-75
2020/12/25 12:23:04;;;;;;;14.80;13.70;;;3.80;99.90;;;;;;5026784;28;20473;-77
2020/12/25 12:25:31;;;;;;;14.57;13.47;;;3.70;99.90;;;;;;5029179;28;20620;-76
2020/12/25 12:27:57;;;;;;;15.40;14.30;;;3.60;99.90;;;;;;5028975;28;20470;-76
2020/12/25 12:30:23;;;;;;;12.63;11.73;;;3.60;99.90;;;;;;5029297;28;20435;-77
2020/12/25 12:32:50;;;;;;;12.13;10.97;;;3.60;99.90;;;;;;5028633;28;20445;-76
2020/12/25 12:35:17;;;;;;;13.10;12.10;;;3.70;99.90;;;;;;5028058;28;20488;-76
2020/12/25 12:37:44;;;;;;;13.23;12.13;;;3.80;99.90;;;;;;5029781;28;20524;-76